createdAt,value
2023-04-09T00:01:10.836Z,34.53
2023-04-09T00:03:39.013Z,32.35
2023-04-09T00:06:06.268Z,30.33
2023-04-09T00:08:33.103Z,75.07
2023-04-09T00:11:00.488Z,36.97
2023-04-09T00:13:38.382Z,35.72
2023-04-09T00:16:06.798Z,53.83
2023-04-09T00:18:33.590Z,50.28
2023-04-09T00:21:00.525Z,50.78
2023-04-09T00:23:27.357Z,67.85
2023-04-09T00:25:54.133Z,31.80
2023-04-09T00:28:20.975Z,34.60
2023-04-09T00:30:47.793Z,51.67
2023-04-09T00:33:14.563Z,42.13
2023-04-09T00:35:41.461Z,44.65
2023-04-09T00:38:08.239Z,58.70
2023-04-09T00:40:34.984Z,50.17
2023-04-09T00:43:02.461Z,74.25
2023-04-09T00:45:29.461Z,40.53
2023-04-09T00:47:56.723Z,55.33
2023-04-09T00:50:23.559Z,42.45
2023-04-09T00:52:50.583Z,72.43
2023-04-09T00:55:18.458Z,57.65
2023-04-09T00:57:45.240Z,28.48
2023-04-09T01:00:13.300Z,57.22
2023-04-09T01:02:41.764Z,75.25
2023-04-09T01:05:10.065Z,66.82
2023-04-09T01:08:01.913Z,35.60
2023-04-09T01:10:42.699Z,46.33
2023-04-09T01:13:28.906Z,27.38
2023-04-09T01:15:59.597Z,57.17
2023-04-09T01:18:51.516Z,36.63
2023-04-09T01:21:23.629Z,52.30
2023-04-09T01:24:31.523Z,37.90
2023-04-09T01:27:09.058Z,66.32
2023-04-09T01:29:41.992Z,55.65
2023-04-09T01:32:10.308Z,57.85
2023-04-09T01:34:38.821Z,65.38
2023-04-09T01:37:06.988Z,51.47
2023-04-09T01:39:34.011Z,48.63
2023-04-09T01:42:04.595Z,49.35
2023-04-09T01:44:32.834Z,81.25
2023-04-09T01:47:01.472Z,61.85
2023-04-09T01:49:29.272Z,39.90
2023-04-09T01:51:56.394Z,54.70
2023-04-09T01:54:23.165Z,36.35
2023-04-09T01:56:50.012Z,36.47
2023-04-09T01:59:16.798Z,47.33
2023-04-09T02:01:56.374Z,77.30
2023-04-09T02:04:30.958Z,55.75
2023-04-09T02:07:28.547Z,43.88
2023-04-09T02:09:56.460Z,86.85
2023-04-09T02:12:25.134Z,48.17
2023-04-09T02:14:53.344Z,50.80
2023-04-09T02:17:20.241Z,59.47
2023-04-09T02:19:48.413Z,36.75
2023-04-09T02:22:16.413Z,38.55
2023-04-09T02:24:43.195Z,71.88
2023-04-09T02:27:10.299Z,53.05
2023-04-09T02:29:37.122Z,82.75
2023-04-09T02:32:03.929Z,67.53
2023-04-09T02:34:30.717Z,51.35
2023-04-09T02:36:57.587Z,85.03
2023-04-09T02:39:24.347Z,118.38
2023-04-09T02:41:52.766Z,97.90
2023-04-09T02:44:19.531Z,32.75
2023-04-09T02:46:49.034Z,52.20
2023-04-09T02:49:16.422Z,37.55
2023-04-09T02:51:43.181Z,92.30
2023-04-09T02:54:10.269Z,29.50
2023-04-09T02:56:37.159Z,59.38
2023-04-09T02:59:03.940Z,78.78
2023-04-09T03:01:30.794Z,75.30
2023-04-09T03:03:57.734Z,114.90
2023-04-09T03:06:24.598Z,90.20
2023-04-09T03:08:51.579Z,98.95
2023-04-09T03:11:18.530Z,73.78
2023-04-09T03:13:45.304Z,113.63
2023-04-09T03:16:12.169Z,119.78
2023-04-09T03:18:38.944Z,63.55
2023-04-09T03:21:07.563Z,115.28
2023-04-09T03:23:35.037Z,156.90
2023-04-09T03:26:05.949Z,104.03
2023-04-09T03:28:32.925Z,86.90
2023-04-09T03:30:59.737Z,109.70
2023-04-09T03:33:26.533Z,77.80
2023-04-09T03:35:53.402Z,41.63
2023-04-09T03:38:20.254Z,49.45
2023-04-09T03:40:47.085Z,58.67
2023-04-09T03:43:13.886Z,39.60
2023-04-09T03:45:40.701Z,92.28
2023-04-09T03:48:07.502Z,60.63
2023-04-09T03:50:43.402Z,45.47
2023-04-09T03:53:10.252Z,66.53
2023-04-09T03:55:37.975Z,73.60
2023-04-09T03:58:04.943Z,92.25
2023-04-09T04:00:31.750Z,156.75
2023-04-09T04:02:58.641Z,109.82
2023-04-09T04:05:26.223Z,90.10
2023-04-09T04:07:53.101Z,108.25
2023-04-09T04:10:20.517Z,96.43
2023-04-09T04:12:47.395Z,91.40
2023-04-09T04:15:14.315Z,82.10
2023-04-09T04:17:41.129Z,79.93
2023-04-09T04:20:08.666Z,33.50
2023-04-09T04:22:35.812Z,107.28
2023-04-09T04:25:04.320Z,71.45
2023-04-09T04:27:31.248Z,77.68
2023-04-09T04:30:00.322Z,63.42
2023-04-09T04:32:27.336Z,105.32
2023-04-09T04:34:54.251Z,70.28
2023-04-09T04:37:21.663Z,73.50
2023-04-09T04:39:48.811Z,102.70
2023-04-09T04:42:16.519Z,112.65
2023-04-09T04:44:44.175Z,98.53
2023-04-09T04:47:10.961Z,130.07
2023-04-09T04:49:37.742Z,123.78
2023-04-09T04:52:04.730Z,79.55
2023-04-09T04:54:31.651Z,75.93
2023-04-09T04:56:58.446Z,66.15
2023-04-09T04:59:25.339Z,40.75
2023-04-09T05:01:52.188Z,78.43
2023-04-09T05:04:19.005Z,26.25
2023-04-09T05:06:45.770Z,89.15
2023-04-09T05:09:12.643Z,97.75
2023-04-09T05:11:39.418Z,18.67
2023-04-09T05:14:06.617Z,54.85
2023-04-09T05:16:33.460Z,26.50
2023-04-09T05:19:00.267Z,27.58
2023-04-09T05:21:27.562Z,36.97
2023-04-09T05:23:54.735Z,36.95
2023-04-09T05:26:22.569Z,29.73
2023-04-09T05:28:49.759Z,52.33
2023-04-09T05:31:16.717Z,106.10
2023-04-09T05:33:43.598Z,33.15
2023-04-09T05:36:16.981Z,24.33
2023-04-09T05:38:46.284Z,21.65
2023-04-09T05:41:13.260Z,61.92
2023-04-09T05:43:40.520Z,38.47
2023-04-09T05:46:07.410Z,63.05
2023-04-09T05:48:37.428Z,28.38
2023-04-09T05:51:04.487Z,76.43
2023-04-09T05:53:32.082Z,26.60
2023-04-09T05:55:58.939Z,29.13
2023-04-09T05:58:25.873Z,42.95
2023-04-09T06:00:52.627Z,21.08
2023-04-09T06:03:19.826Z,37.42
2023-04-09T06:05:46.872Z,35.00
2023-04-09T06:08:14.080Z,31.35
2023-04-09T06:10:41.500Z,32.03
2023-04-09T06:13:08.415Z,30.05
2023-04-09T06:15:36.262Z,30.77
2023-04-09T06:18:03.206Z,29.25
2023-04-09T06:20:30.481Z,31.02
2023-04-09T06:22:57.259Z,41.42
2023-04-09T06:25:24.129Z,27.25
2023-04-09T06:27:50.892Z,41.75
2023-04-09T06:30:17.708Z,39.45
2023-04-09T06:32:54.451Z,39.30
2023-04-09T06:35:22.591Z,32.67
2023-04-09T06:37:49.422Z,31.38
2023-04-09T06:40:16.344Z,31.75
2023-04-09T06:42:43.128Z,29.50
2023-04-09T06:45:10.213Z,30.55
2023-04-09T06:47:37.024Z,33.10
2023-04-09T06:50:04.440Z,30.35
2023-04-09T06:52:31.249Z,32.53
2023-04-09T06:54:58.031Z,33.22
2023-04-09T06:57:25.460Z,32.10
2023-04-09T06:59:52.207Z,32.72
2023-04-09T07:02:19.077Z,30.60
2023-04-09T07:04:45.987Z,33.15
2023-04-09T07:07:12.812Z,34.33
2023-04-09T07:09:39.690Z,32.78
2023-04-09T07:12:06.463Z,34.88
2023-04-09T07:14:33.255Z,40.38
2023-04-09T07:17:00.031Z,35.05
2023-04-09T07:19:26.788Z,38.30
2023-04-09T07:21:53.692Z,32.58
2023-04-09T07:24:20.565Z,32.90
2023-04-09T07:26:47.945Z,32.50
2023-04-09T07:29:15.225Z,35.72
2023-04-09T07:31:42.029Z,34.92
2023-04-09T07:34:08.832Z,32.05
2023-04-09T07:36:35.639Z,36.95
2023-04-09T07:39:02.462Z,35.85
2023-04-09T07:41:29.251Z,37.58
2023-04-09T07:43:56.209Z,38.50
2023-04-09T07:46:23.107Z,39.65
2023-04-09T07:48:50.122Z,35.20
2023-04-09T07:51:17.178Z,38.65
2023-04-09T07:53:43.970Z,36.15
2023-04-09T07:56:10.791Z,35.75
2023-04-09T07:58:40.161Z,34.90
2023-04-09T08:01:06.935Z,35.03
2023-04-09T08:03:33.922Z,32.05
2023-04-09T08:06:01.247Z,34.72
2023-04-09T08:08:28.397Z,32.03
2023-04-09T08:10:55.504Z,37.05
2023-04-09T08:13:25.286Z,35.53
2023-04-09T08:15:52.304Z,38.65
2023-04-09T08:18:19.178Z,34.15
2023-04-09T08:20:46.060Z,33.28
2023-04-09T08:23:13.087Z,34.28
2023-04-09T08:25:39.948Z,34.28
2023-04-09T08:28:06.786Z,40.15
2023-04-09T08:30:34.255Z,36.03
2023-04-09T08:33:02.502Z,34.55
2023-04-09T08:35:32.578Z,33.58
2023-04-09T08:37:59.830Z,36.55
2023-04-09T08:40:26.640Z,31.25
2023-04-09T08:42:58.660Z,39.25
2023-04-09T08:45:25.774Z,37.92
2023-04-09T08:47:52.928Z,36.08
2023-04-09T08:50:20.641Z,34.70
2023-04-09T08:52:48.583Z,35.63
2023-04-09T08:55:15.606Z,35.15
2023-04-09T08:57:43.767Z,36.85
2023-04-09T09:00:11.532Z,35.65
2023-04-09T09:02:39.460Z,42.40
2023-04-09T09:05:06.908Z,39.58
2023-04-09T09:07:34.223Z,36.38
2023-04-09T09:10:05.285Z,36.00
2023-04-09T09:12:41.075Z,35.25
2023-04-09T09:15:29.124Z,36.72
2023-04-09T09:18:00.591Z,38.50
2023-04-09T09:20:27.541Z,39.75
2023-04-09T09:22:56.776Z,34.35
2023-04-09T09:25:25.493Z,36.42
2023-04-09T09:27:53.820Z,35.33
2023-04-09T09:30:26.551Z,37.65
2023-04-09T09:33:06.375Z,35.25
2023-04-09T09:35:51.142Z,36.83
2023-04-09T09:38:18.381Z,38.67
2023-04-09T09:40:45.266Z,37.63
2023-04-09T09:43:15.590Z,31.73
2023-04-09T09:45:43.768Z,36.75
2023-04-09T09:48:12.721Z,36.22
2023-04-09T09:50:43.101Z,35.83
2023-04-09T09:53:11.920Z,38.15
2023-04-09T09:55:41.728Z,36.25
2023-04-09T09:58:23.653Z,33.53
2023-04-09T10:00:52.737Z,34.67
2023-04-09T10:03:25.275Z,35.58
2023-04-09T10:05:53.861Z,34.47
2023-04-09T10:08:22.823Z,34.53
2023-04-09T10:10:52.288Z,37.72
2023-04-09T10:13:32.172Z,39.72
2023-04-09T10:15:59.792Z,40.67
2023-04-09T10:18:26.676Z,34.22
2023-04-09T10:21:14.933Z,37.22
2023-04-09T10:23:44.373Z,35.15
2023-04-09T10:26:11.255Z,38.58
2023-04-09T10:28:38.487Z,38.75
2023-04-09T10:31:07.433Z,34.95
2023-04-09T10:33:37.331Z,38.25
2023-04-09T10:36:14.776Z,36.50
2023-04-09T10:38:45.817Z,33.67
2023-04-09T10:41:16.223Z,36.45
2023-04-09T10:43:43.811Z,37.47
2023-04-09T10:46:34.417Z,35.85
2023-04-09T10:49:18.741Z,37.13
2023-04-09T10:52:12.589Z,38.25
2023-04-09T10:54:46.068Z,36.00
2023-04-09T10:57:21.481Z,38.30
2023-04-09T10:59:55.809Z,35.47
2023-04-09T11:05:22.433Z,36.38
2023-04-09T11:08:05.311Z,38.70
2023-04-09T11:10:36.356Z,37.72
2023-04-09T11:13:03.512Z,37.60
2023-04-09T11:15:34.849Z,41.55
2023-04-09T11:18:02.339Z,39.58
2023-04-09T11:20:31.012Z,38.40
2023-04-09T11:22:59.819Z,40.25
2023-04-09T11:25:30.553Z,40.28
2023-04-09T11:27:57.778Z,37.10
2023-04-09T11:30:24.822Z,39.58
2023-04-09T11:32:51.681Z,36.72
2023-04-09T11:35:21.525Z,38.10
2023-04-09T11:37:50.103Z,35.03
2023-04-09T11:40:19.808Z,35.35
2023-04-09T11:42:50.852Z,36.28
2023-04-09T11:45:18.805Z,31.65
2023-04-09T11:47:47.106Z,34.10
2023-04-09T11:50:16.121Z,35.25
2023-04-09T11:52:45.222Z,33.28
2023-04-09T11:55:12.588Z,34.72
2023-04-09T11:57:46.929Z,32.33
2023-04-09T12:02:50.691Z,32.10
2023-04-09T12:05:30.478Z,35.70
2023-04-09T12:08:07.025Z,37.83
2023-04-09T12:10:38.672Z,34.30
2023-04-09T12:13:10.371Z,33.13
2023-04-09T12:15:41.102Z,36.00
2023-04-09T12:18:13.523Z,29.80
2023-04-09T12:20:47.364Z,33.60
2023-04-09T12:23:15.879Z,34.70
2023-04-09T12:25:45.444Z,34.85
2023-04-09T12:28:16.002Z,35.42
2023-04-09T12:30:43.907Z,34.13
2023-04-09T12:33:11.466Z,36.70
2023-04-09T12:35:38.795Z,35.20
2023-04-09T12:38:06.936Z,33.75
2023-04-09T12:40:35.650Z,33.80
2023-04-09T12:43:02.484Z,35.42
2023-04-09T12:45:30.311Z,32.35
2023-04-09T12:47:57.208Z,33.72
2023-04-09T12:50:24.280Z,36.55
2023-04-09T12:52:51.089Z,32.78
2023-04-09T12:55:17.891Z,32.45
2023-04-09T12:57:46.979Z,31.98
2023-04-09T13:00:14.622Z,31.92
2023-04-09T13:02:41.614Z,30.08
2023-04-09T13:05:08.763Z,32.47
2023-04-09T13:07:35.684Z,33.40
2023-04-09T13:10:02.573Z,36.65
2023-04-09T13:12:30.101Z,32.33
2023-04-09T13:14:56.879Z,31.52
2023-04-09T13:17:23.826Z,29.63
2023-04-09T13:19:51.686Z,32.63
2023-04-09T13:22:19.097Z,32.55
2023-04-09T13:24:45.957Z,28.52
2023-04-09T13:27:12.886Z,29.55
2023-04-09T13:29:39.709Z,28.27
2023-04-09T13:32:11.353Z,28.92
2023-04-09T13:34:39.627Z,27.40
2023-04-09T13:37:07.118Z,27.23
2023-04-09T13:39:33.997Z,29.83
2023-04-09T13:42:07.205Z,24.25
2023-04-09T13:44:42.022Z,28.38
2023-04-09T13:47:11.072Z,21.45
2023-04-09T13:49:37.924Z,22.30
2023-04-09T13:52:05.008Z,20.30
2023-04-09T13:54:32.784Z,19.90
2023-04-09T13:56:59.632Z,20.70
2023-04-09T13:59:26.535Z,21.65
2023-04-09T14:01:53.402Z,25.70
2023-04-09T14:04:20.493Z,23.33
2023-04-09T14:06:47.353Z,23.40
2023-04-09T14:09:15.468Z,18.10
2023-04-09T14:11:42.263Z,18.10
2023-04-09T14:14:09.356Z,20.83
2023-04-09T14:16:36.386Z,19.17
2023-04-09T14:19:03.225Z,18.45
2023-04-09T14:21:30.032Z,21.80
2023-04-09T14:23:56.839Z,20.25
2023-04-09T14:26:24.489Z,17.55
2023-04-09T14:28:51.775Z,22.13
2023-04-09T14:31:21.699Z,18.45
2023-04-09T14:33:48.760Z,20.60
2023-04-09T14:36:15.794Z,19.55
2023-04-09T14:38:42.599Z,20.33
2023-04-09T14:41:09.416Z,18.05
2023-04-09T14:43:36.211Z,17.40
2023-04-09T14:46:03.968Z,17.73
2023-04-09T14:48:30.830Z,15.38
2023-04-09T14:50:58.116Z,16.73
2023-04-09T14:53:25.243Z,18.67
2023-04-09T14:55:52.201Z,16.15
2023-04-09T14:58:18.991Z,16.98
2023-04-09T15:00:45.774Z,16.50
2023-04-09T15:03:12.765Z,16.80
2023-04-09T15:05:39.718Z,17.73
2023-04-09T15:08:06.499Z,18.33
2023-04-09T15:10:33.307Z,15.25
2023-04-09T15:13:00.106Z,17.00
2023-04-09T15:15:27.254Z,19.33
2023-04-09T15:17:54.087Z,16.70
2023-04-09T15:20:21.086Z,18.45
2023-04-09T15:22:47.899Z,20.10
2023-04-09T15:25:14.753Z,18.92
2023-04-09T15:27:41.564Z,18.33
2023-04-09T15:30:08.845Z,17.75
2023-04-09T15:32:35.611Z,16.63
2023-04-09T15:35:02.458Z,18.52
2023-04-09T15:37:29.251Z,18.30
2023-04-09T15:39:56.444Z,18.08
2023-04-09T15:42:23.210Z,18.80
2023-04-09T15:44:50.623Z,17.38
2023-04-09T15:47:17.686Z,17.70
2023-04-09T15:49:44.603Z,17.58
2023-04-09T15:52:11.389Z,18.75
2023-04-09T15:54:38.198Z,19.88
2023-04-09T15:57:05.083Z,18.45
2023-04-09T15:59:31.909Z,17.23
2023-04-09T16:01:58.821Z,17.23
2023-04-09T16:04:26.810Z,19.67
2023-04-09T16:06:55.363Z,17.65
2023-04-09T16:09:22.840Z,18.75
2023-04-09T16:11:51.520Z,17.45
2023-04-09T16:14:18.376Z,18.58
2023-04-09T16:16:49.604Z,15.75
2023-04-09T16:19:17.709Z,17.88
2023-04-09T16:21:45.363Z,16.45
2023-04-09T16:24:13.097Z,18.58
2023-04-09T16:26:44.440Z,18.02
2023-04-09T16:29:12.605Z,21.95
2023-04-09T16:31:42.152Z,16.33
2023-04-09T16:34:09.023Z,17.13
2023-04-09T16:36:37.065Z,18.08
2023-04-09T16:39:04.720Z,19.10
2023-04-09T16:41:31.547Z,17.73
2023-04-09T16:43:58.338Z,17.55
2023-04-09T16:46:25.292Z,19.27
2023-04-09T16:48:52.483Z,17.02
2023-04-09T16:51:19.610Z,21.92
2023-04-09T16:53:46.718Z,18.45
2023-04-09T16:56:15.531Z,17.75
2023-04-09T16:58:43.109Z,17.60
2023-04-09T17:01:09.974Z,18.80
2023-04-09T17:03:36.943Z,17.00
2023-04-09T17:06:04.665Z,16.98
2023-04-09T17:08:31.770Z,16.33
2023-04-09T17:11:04.150Z,19.40
2023-04-09T17:13:35.009Z,18.83
2023-04-09T17:16:02.748Z,19.73
2023-04-09T17:18:30.044Z,26.67
2023-04-09T17:20:56.975Z,24.02
2023-04-09T17:23:23.808Z,23.70
2023-04-09T17:25:50.602Z,21.35
2023-04-09T17:28:18.939Z,20.30
2023-04-09T17:30:46.161Z,21.05
2023-04-09T17:33:13.268Z,20.35
2023-04-09T17:35:41.837Z,19.05
2023-04-09T17:38:08.817Z,20.58
2023-04-09T17:40:35.841Z,19.27
2023-04-09T17:43:02.607Z,21.73
2023-04-09T17:45:29.529Z,18.90
2023-04-09T17:47:57.019Z,21.77
2023-04-09T17:50:24.138Z,22.05
2023-04-09T17:52:51.011Z,18.20
2023-04-09T17:55:18.250Z,21.23
2023-04-09T17:57:45.063Z,20.90
2023-04-09T18:00:12.533Z,23.92
2023-04-09T18:02:39.530Z,23.63
2023-04-09T18:05:07.286Z,21.48
2023-04-09T18:07:34.507Z,21.92
2023-04-09T18:10:03.442Z,23.80
2023-04-09T18:12:30.471Z,22.50
2023-04-09T18:14:57.243Z,26.33
2023-04-09T18:17:26.137Z,21.50
2023-04-09T18:19:54.812Z,21.90
2023-04-09T18:22:21.753Z,18.60
2023-04-09T18:24:48.688Z,20.20
2023-04-09T18:27:17.665Z,25.38
2023-04-09T18:29:44.472Z,23.13
2023-04-09T18:32:11.257Z,23.13
2023-04-09T18:34:38.092Z,21.13
2023-04-09T18:37:04.852Z,24.05
2023-04-09T18:39:31.669Z,24.45
2023-04-09T18:41:58.436Z,23.33
2023-04-09T18:44:25.204Z,21.52
2023-04-09T18:46:52.209Z,20.77
2023-04-09T18:49:19.059Z,20.40
2023-04-09T18:51:47.876Z,24.38
2023-04-09T18:54:34.914Z,22.35
2023-04-09T18:59:33.396Z,24.27
2023-04-09T19:02:01.157Z,21.50
2023-04-09T19:04:28.187Z,20.58
2023-04-09T19:06:55.239Z,22.63
2023-04-09T19:09:22.241Z,24.67
2023-04-09T19:11:49.015Z,20.42
2023-04-09T19:14:16.093Z,24.17
2023-04-09T19:16:44.217Z,22.35
2023-04-09T19:19:11.884Z,26.52
2023-04-09T19:21:38.695Z,27.55
2023-04-09T19:24:06.240Z,27.38
2023-04-09T19:26:33.214Z,30.20
2023-04-09T19:29:03.634Z,37.22
2023-04-09T19:31:30.624Z,34.38
2023-04-09T19:33:57.621Z,37.30
2023-04-09T19:36:24.392Z,39.33
2023-04-09T19:38:51.651Z,35.20
2023-04-09T19:41:18.630Z,31.63
2023-04-09T19:43:48.434Z,34.75
2023-04-09T19:46:15.287Z,39.70
2023-04-09T19:48:42.060Z,34.35
2023-04-09T19:51:15.709Z,34.45
2023-04-09T19:53:43.122Z,33.35
2023-04-09T19:56:10.774Z,32.45
2023-04-09T19:58:37.642Z,28.80
2023-04-09T20:01:04.811Z,31.33
2023-04-09T20:03:34.801Z,36.47
2023-04-09T20:06:08.501Z,32.63
2023-04-09T20:08:36.544Z,36.78
2023-04-09T20:11:04.009Z,34.13
2023-04-09T20:13:30.788Z,30.45
2023-04-09T20:15:57.631Z,33.17
2023-04-09T20:18:24.391Z,33.53
2023-04-09T20:20:51.857Z,36.03
2023-04-09T20:23:18.604Z,31.48
2023-04-09T20:25:45.348Z,35.70
2023-04-09T20:28:12.162Z,31.00
2023-04-09T20:30:38.921Z,30.00
2023-04-09T20:33:05.786Z,30.88
2023-04-09T20:35:36.123Z,32.55
2023-04-09T20:38:03.245Z,30.02
2023-04-09T20:40:31.246Z,30.45
2023-04-09T20:42:59.164Z,29.70
2023-04-09T20:45:26.129Z,29.65
2023-04-09T20:47:53.174Z,29.70
2023-04-09T20:50:20.066Z,34.78
2023-04-09T20:52:47.447Z,36.55
2023-04-09T20:55:14.482Z,33.10
2023-04-09T20:57:41.460Z,35.20
2023-04-09T21:00:09.007Z,35.10
2023-04-09T21:02:36.380Z,31.23
2023-04-09T21:05:11.827Z,33.35
2023-04-09T21:07:48.501Z,32.95
2023-04-09T21:10:15.487Z,32.13
2023-04-09T21:12:43.040Z,32.97
2023-04-09T21:15:10.557Z,36.17
2023-04-09T21:17:37.412Z,37.65
2023-04-09T21:20:04.622Z,34.00
2023-04-09T21:22:31.904Z,33.92
2023-04-09T21:24:58.718Z,35.78
2023-04-09T21:27:25.835Z,35.78
2023-04-09T21:29:53.574Z,39.08
2023-04-09T21:32:20.526Z,40.53
2023-04-09T21:34:47.421Z,43.10
2023-04-09T21:37:14.192Z,36.33
2023-04-09T21:39:41.059Z,41.92
2023-04-09T21:42:08.701Z,42.20
2023-04-09T21:44:35.536Z,39.00
2023-04-09T21:47:07.320Z,41.40
2023-04-09T21:49:39.042Z,41.55
2023-04-09T21:52:13.690Z,37.08
2023-04-09T21:54:42.030Z,46.15
2023-04-09T21:57:08.973Z,40.63
2023-04-09T21:59:38.507Z,41.50
2023-04-09T22:02:05.675Z,42.80
2023-04-09T22:04:34.829Z,42.75
2023-04-09T22:07:02.523Z,42.78
2023-04-09T22:09:30.238Z,43.40
2023-04-09T22:11:58.653Z,42.60
2023-04-09T22:14:29.505Z,42.28
2023-04-09T22:16:58.148Z,44.80
2023-04-09T22:19:26.084Z,47.30
2023-04-09T22:21:53.421Z,45.95
2023-04-09T22:24:21.384Z,42.05
2023-04-09T22:26:48.122Z,42.78
2023-04-09T22:29:14.914Z,44.53
2023-04-09T22:31:41.975Z,41.85
2023-04-09T22:34:20.193Z,41.45
2023-04-09T22:36:48.080Z,45.30
2023-04-09T22:39:14.888Z,42.70
2023-04-09T22:41:41.688Z,44.55
2023-04-09T22:44:09.425Z,43.33
2023-04-09T22:46:36.741Z,42.17
2023-04-09T22:49:05.611Z,41.00
2023-04-09T22:51:34.396Z,40.63
2023-04-09T23:01:09.336Z,45.08
2023-04-09T23:03:36.232Z,41.72
2023-04-09T23:06:03.064Z,41.35
2023-04-09T23:08:29.854Z,39.25
2023-04-09T23:10:57.243Z,43.95
2023-04-09T23:13:24.008Z,41.78
2023-04-09T23:15:50.920Z,46.30
2023-04-09T23:18:17.836Z,42.22
2023-04-09T23:20:44.664Z,43.83
2023-04-09T23:23:12.327Z,45.78
2023-04-09T23:25:39.089Z,41.33
2023-04-09T23:28:05.905Z,42.95
2023-04-09T23:30:32.925Z,39.50
2023-04-09T23:32:59.870Z,44.17
2023-04-09T23:35:26.664Z,40.50
2023-04-09T23:37:53.511Z,41.85
2023-04-09T23:40:20.321Z,37.47
2023-04-09T23:42:48.027Z,43.47
2023-04-09T23:45:14.932Z,42.67
2023-04-09T23:47:42.197Z,40.83
2023-04-09T23:50:09.574Z,40.15
2023-04-09T23:52:38.300Z,40.85
2023-04-09T23:55:10.642Z,41.67
2023-04-09T23:57:37.787Z,43.20
